»·PEaware :: N517GA KPDT-KBAM

N517GA :: KPDT-KBAM

FLIGHT INFORMATION

Flight Status: Arrived
Operator: Privately registered:
United States
More flights under this callsign
Pilot: John H. (7647)
Aircraft: DEHAVILLAND DH-6 TWIN OTTER
(DHC6)
More flights by this aircraft type
Origin: KPDT Eastern Oreg Regl At Pendleto
United States
Destination: KBAM Battle Mountain
United States
More flights between these airports :: More routes between these airports
Route: PDT RENCE IMB ILR REO SDO INA RAJKO DIYLA EBREQ SIHEJ
File this flight plan on PilotEdge
Remarks:
Altitude:
(Current/Filed)
9,500ft
Speed:
(Current/Filed)
145kts
Departed: 08-Jun-16 01:58 PM
Arrived: 08-Jun-16 04:46 PM
Distance/Time
Traveled:
317nm/2:48
Distance/Time
To Go:
Arrived

Flight Plot

Page will automatically refresh every two minutes.


Map Options




Map Legend


Flown Route
Filed Route
Departure Airport
Arrival Airport
Navaid (VOR, NDB)
Fix

Horizontal Profiles

Position Reports

Time Latitude Longitude Heading Altitude Ground
Speed
08-Jun-16 13:48 45.689448 -118.845916 273 1503ft 0kts
08-Jun-16 13:49 45.689448 -118.845916 273 1503ft 0kts
08-Jun-16 13:50 45.689448 -118.845916 273 1503ft 0kts
08-Jun-16 13:51 45.689576 -118.845948 38 1503ft 8kts
08-Jun-16 13:52 45.692087 -118.838714 92 1503ft 16kts
08-Jun-16 13:53 45.694299 -118.834008 87 1503ft 21kts
08-Jun-16 13:54 45.695380 -118.829415 274 1503ft 0kts
08-Jun-16 13:55 45.695402 -118.849135 276 2013ft 83kts
08-Jun-16 13:56 45.695641 -118.881935 274 3322ft 80kts
08-Jun-16 13:57 45.697225 -118.913605 274 4597ft 80kts
08-Jun-16 13:58 45.693972 -118.943699 240 5785ft 84kts
08-Jun-16 13:59 45.682054 -118.965417 237 6724ft 83kts
08-Jun-16 14:00 45.665049 -118.995234 235 7944ft 83kts
08-Jun-16 14:01 45.652766 -119.016389 234 8756ft 83kts
08-Jun-16 14:02 45.637675 -119.042212 232 9506ft 98kts
08-Jun-16 14:03 45.616913 -119.077509 231 9511ft 125kts
08-Jun-16 14:04 45.593925 -119.116488 231 9506ft 129kts
08-Jun-16 14:05 45.570773 -119.155691 231 9504ft 130kts
08-Jun-16 14:06 45.547553 -119.194978 230 9502ft 130kts
08-Jun-16 14:07 45.524181 -119.234439 230 9501ft 130kts
08-Jun-16 14:08 45.500872 -119.273743 230 9499ft 130kts
08-Jun-16 14:09 45.477569 -119.312986 230 9498ft 130kts
08-Jun-16 14:10 45.454220 -119.352255 229 9498ft 130kts
08-Jun-16 14:11 45.430893 -119.391414 230 9497ft 129kts
08-Jun-16 14:12 45.407561 -119.430554 230 9497ft 129kts
08-Jun-16 14:13 45.384265 -119.469586 230 9497ft 129kts
08-Jun-16 14:14 45.360834 -119.508762 230 9497ft 129kts
08-Jun-16 14:15 45.337585 -119.547586 230 9496ft 129kts
08-Jun-16 14:16 45.314261 -119.586489 229 9496ft 129kts
08-Jun-16 14:17 45.290868 -119.625445 230 9496ft 129kts
08-Jun-16 14:18 45.267714 -119.664167 229 9500ft 129kts
08-Jun-16 14:19 45.244459 -119.703186 229 9500ft 130kts
08-Jun-16 14:20 45.220881 -119.742386 229 9499ft 130kts
08-Jun-16 14:21 45.197333 -119.781397 229 9499ft 130kts
08-Jun-16 14:22 45.173839 -119.820275 229 9498ft 130kts
08-Jun-16 14:23 45.150229 -119.859264 229 9499ft 130kts
08-Jun-16 14:24 45.126675 -119.898118 229 9498ft 130kts
08-Jun-16 14:25 45.103183 -119.936820 229 9499ft 130kts
08-Jun-16 14:26 45.079614 -119.975587 229 9498ft 130kts
08-Jun-16 14:27 45.056014 -120.014324 229 9500ft 129kts
08-Jun-16 14:28 45.032489 -120.052910 230 9512ft 129kts
08-Jun-16 14:29 45.008936 -120.091503 230 9523ft 129kts
08-Jun-16 14:30 44.985580 -120.127308 209 9520ft 135kts
08-Jun-16 14:31 44.950199 -120.096562 149 9523ft 161kts
08-Jun-16 14:32 44.916816 -120.054534 148 9526ft 160kts
08-Jun-16 14:33 44.884091 -120.012624 148 9537ft 159kts
08-Jun-16 14:34 44.851376 -119.970673 148 9551ft 158kts
08-Jun-16 14:35 44.818935 -119.929144 148 9566ft 157kts
08-Jun-16 14:36 44.786382 -119.887506 148 9575ft 157kts
08-Jun-16 14:37 44.753946 -119.846106 148 9575ft 158kts
08-Jun-16 14:38 44.721381 -119.804604 148 9574ft 157kts
08-Jun-16 14:39 44.688665 -119.762977 148 9504ft 160kts
08-Jun-16 14:40 44.655694 -119.721067 148 9502ft 160kts
08-Jun-16 14:41 44.618911 -119.690466 162 9502ft 153kts
08-Jun-16 14:42 44.581304 -119.662826 162 9501ft 152kts
08-Jun-16 14:43 44.543603 -119.635319 162 9501ft 153kts
08-Jun-16 14:44 44.505856 -119.607823 162 9501ft 152kts
08-Jun-16 14:45 44.468159 -119.580427 162 9501ft 153kts
08-Jun-16 14:46 44.430486 -119.553112 162 9500ft 153kts
08-Jun-16 14:47 44.392709 -119.525741 162 9501ft 152kts
08-Jun-16 14:48 44.354963 -119.498427 163 9501ft 152kts
08-Jun-16 14:49 44.317302 -119.471205 162 9501ft 152kts
08-Jun-16 14:50 44.279583 -119.444004 162 9501ft 152kts
08-Jun-16 14:51 44.241919 -119.416871 162 9501ft 152kts
08-Jun-16 14:52 44.204162 -119.389705 162 9500ft 152kts
08-Jun-16 14:53 44.166435 -119.362604 163 9501ft 152kts
08-Jun-16 14:54 44.128907 -119.335425 163 9497ft 152kts
08-Jun-16 14:55 44.091401 -119.308372 163 9496ft 151kts
08-Jun-16 14:56 44.054003 -119.281584 163 9496ft 151kts
08-Jun-16 14:57 44.016561 -119.254837 163 9496ft 151kts
08-Jun-16 14:58 43.979213 -119.228216 163 9500ft 150kts
08-Jun-16 14:59 43.942010 -119.201727 163 9511ft 149kts
08-Jun-16 15:00 43.904990 -119.175405 162 9521ft 149kts
08-Jun-16 15:01 43.868193 -119.149274 162 9538ft 149kts
08-Jun-16 15:02 43.831328 -119.123126 162 9547ft 149kts
08-Jun-16 15:03 43.794330 -119.096916 162 9547ft 149kts
08-Jun-16 15:04 43.757317 -119.070739 162 9547ft 149kts
08-Jun-16 15:05 43.720363 -119.044643 162 9546ft 149kts
08-Jun-16 15:06 43.683431 -119.018598 162 9546ft 149kts
08-Jun-16 15:07 43.646438 -118.992548 162 9546ft 149kts
08-Jun-16 15:08 43.609509 -118.966578 162 9546ft 149kts
08-Jun-16 15:09 43.574575 -118.934250 151 9546ft 154kts
08-Jun-16 15:10 43.546578 -118.903512 151 9546ft 154kts
08-Jun-16 15:11 43.507544 -118.860482 150 9546ft 154kts
08-Jun-16 15:12 43.479604 -118.829690 150 9546ft 154kts
08-Jun-16 15:13 43.440509 -118.786660 150 9546ft 154kts
08-Jun-16 15:14 43.412611 -118.755997 150 9546ft 154kts
08-Jun-16 15:15 43.379092 -118.719205 150 9546ft 154kts
08-Jun-16 15:16 43.345526 -118.682415 150 9545ft 154kts
08-Jun-16 15:17 43.312045 -118.645772 150 9545ft 154kts
08-Jun-16 15:18 43.278482 -118.609092 150 9545ft 154kts
08-Jun-16 15:19 43.245023 -118.572578 150 9545ft 154kts
08-Jun-16 15:20 43.211444 -118.535987 150 9545ft 154kts
08-Jun-16 15:21 43.177875 -118.499459 150 9544ft 154kts
08-Jun-16 15:22 43.144293 -118.462969 151 9542ft 154kts
08-Jun-16 15:23 43.110717 -118.426534 151 9537ft 154kts
08-Jun-16 15:24 43.077225 -118.390241 151 9531ft 154kts
08-Jun-16 15:25 43.043560 -118.353817 151 9523ft 153kts
08-Jun-16 15:26 43.010424 -118.317647 151 9514ft 153kts
08-Jun-16 15:27 42.976839 -118.281353 150 9515ft 155kts
08-Jun-16 15:28 42.942779 -118.244631 149 9515ft 157kts
08-Jun-16 15:29 42.908269 -118.207470 148 9516ft 158kts
08-Jun-16 15:30 42.874950 -118.171672 147 9518ft 159kts
08-Jun-16 15:31 42.839988 -118.134109 149 9499ft 159kts
08-Jun-16 15:32 42.805058 -118.096724 149 9501ft 159kts
08-Jun-16 15:33 42.770165 -118.059429 149 9500ft 159kts
08-Jun-16 15:34 42.735227 -118.022138 148 9500ft 159kts
08-Jun-16 15:35 42.700284 -117.984884 148 9500ft 159kts
08-Jun-16 15:36 42.665450 -117.947769 148 9500ft 159kts
08-Jun-16 15:37 42.630430 -117.910540 149 9497ft 159kts
08-Jun-16 15:38 42.595372 -117.873524 153 9497ft 157kts
08-Jun-16 15:39 42.554736 -117.873972 189 9500ft 147kts
08-Jun-16 15:40 42.514019 -117.879309 190 9500ft 147kts
08-Jun-16 15:41 42.473219 -117.885025 190 9499ft 147kts
08-Jun-16 15:42 42.432635 -117.890785 190 9498ft 147kts
08-Jun-16 15:43 42.392743 -117.896478 190 9498ft 146kts
08-Jun-16 15:44 42.352748 -117.902165 190 9501ft 146kts
08-Jun-16 15:45 42.312264 -117.907924 191 9497ft 146kts
08-Jun-16 15:46 42.271638 -117.913669 191 9499ft 146kts
08-Jun-16 15:47 42.231151 -117.919431 191 9500ft 146kts
08-Jun-16 15:48 42.190552 -117.925179 191 9501ft 146kts
08-Jun-16 15:49 42.149974 -117.930931 191 9497ft 146kts
08-Jun-16 15:50 42.109349 -117.936664 191 9494ft 146kts
08-Jun-16 15:51 42.068702 -117.942412 191 9496ft 146kts
08-Jun-16 15:52 42.028160 -117.948135 191 9498ft 146kts
08-Jun-16 15:53 41.987589 -117.953831 191 9500ft 147kts
08-Jun-16 15:54 41.947124 -117.959516 191 9497ft 146kts
08-Jun-16 15:55 41.906527 -117.965205 191 9497ft 147kts
08-Jun-16 15:56 41.865784 -117.970921 191 9502ft 147kts
08-Jun-16 15:57 41.825007 -117.976638 192 9500ft 147kts
08-Jun-16 15:58 41.784222 -117.982323 190 9501ft 147kts
08-Jun-16 15:59 41.743559 -117.988007 191 9501ft 147kts
08-Jun-16 16:00 41.702809 -117.993687 191 9516ft 147kts
08-Jun-16 16:01 41.661979 -117.999369 191 9536ft 147kts
08-Jun-16 16:02 41.620852 -118.005099 190 9547ft 148kts
08-Jun-16 16:03 41.579696 -118.010813 191 9556ft 149kts
08-Jun-16 16:04 41.538222 -118.016569 191 9554ft 149kts
08-Jun-16 16:05 41.496917 -118.022279 190 9555ft 150kts
08-Jun-16 16:06 41.455471 -118.028022 191 9554ft 150kts
08-Jun-16 16:07 41.413917 -118.033771 191 9553ft 150kts
08-Jun-16 16:08 41.372344 -118.019069 168 9550ft 156kts
08-Jun-16 16:09 41.331068 -118.001129 168 9552ft 156kts
08-Jun-16 16:10 41.289774 -117.982972 168 9554ft 156kts
08-Jun-16 16:11 41.248471 -117.964850 168 9555ft 156kts
08-Jun-16 16:12 41.207039 -117.946653 168 9553ft 156kts
08-Jun-16 16:13 41.165670 -117.928521 167 9553ft 156kts
08-Jun-16 16:14 41.124256 -117.910383 167 9510ft 158kts
08-Jun-16 16:15 41.082788 -117.892228 168 9509ft 156kts
08-Jun-16 16:16 41.041601 -117.874270 168 9509ft 156kts
08-Jun-16 16:17 41.000223 -117.856209 168 9510ft 156kts
08-Jun-16 16:18 40.969209 -117.842693 168 9508ft 156kts
08-Jun-16 16:19 40.927953 -117.824725 167 9504ft 156kts
08-Jun-16 16:20 40.889229 -117.799576 145 9511ft 163kts
08-Jun-16 16:21 40.855073 -117.759507 144 9514ft 164kts
08-Jun-16 16:22 40.820826 -117.718902 144 9510ft 165kts
08-Jun-16 16:23 40.792487 -117.685242 144 9511ft 164kts
08-Jun-16 16:24 40.761493 -117.648482 144 8808ft 164kts
08-Jun-16 16:25 40.722845 -117.602675 144 8208ft 149kts
08-Jun-16 16:26 40.698689 -117.574074 146 8204ft 135kts
08-Jun-16 16:27 40.671217 -117.541678 147 8212ft 131kts
08-Jun-16 16:28 40.642730 -117.508097 143 8215ft 152kts
08-Jun-16 16:29 40.610210 -117.469439 136 8236ft 162kts
08-Jun-16 16:30 40.584391 -117.433406 153 8839ft 142kts
08-Jun-16 16:31 40.553410 -117.402390 146 8321ft 139kts
08-Jun-16 16:32 40.527409 -117.372200 147 8198ft 124kts
08-Jun-16 16:33 40.498190 -117.337877 144 8194ft 154kts
08-Jun-16 16:34 40.469259 -117.295457 105 8190ft 171kts
08-Jun-16 16:35 40.461756 -117.233454 104 8187ft 172kts
08-Jun-16 16:36 40.454886 -117.170741 103 8191ft 174kts
08-Jun-16 16:37 40.447969 -117.107432 103 8190ft 175kts
08-Jun-16 16:38 40.463680 -117.050979 44 8089ft 179kts
08-Jun-16 16:39 40.500059 -117.005050 44 6987ft 182kts
08-Jun-16 16:40 40.534966 -116.960942 45 6486ft 158kts
08-Jun-16 16:41 40.565504 -116.926675 39 5933ft 142kts
08-Jun-16 16:42 40.588459 -116.893162 53 4802ft 141kts
08-Jun-16 16:43 40.601601 -116.875259 15 4538ft 0kts
08-Jun-16 16:44 40.601601 -116.875259 15 4538ft 0kts
08-Jun-16 16:45 40.601601 -116.875259 15 4538ft 0kts
08-Jun-16 16:46 40.601601 -116.875259 15 4538ft 0kts
08-Jun-16 16:47 40.601601 -116.875259 15 4538ft 0kts
08-Jun-16 16:48 40.601601 -116.875259 15 4538ft 0kts
08-Jun-16 16:49 40.601601 -116.875259 15 4538ft 0kts
08-Jun-16 16:50 40.601601 -116.875259 15 4538ft 0kts
08-Jun-16 16:51 40.601601 -116.875259 15 4538ft 0kts
08-Jun-16 16:52 40.601601 -116.875259 15 4538ft 0kts
08-Jun-16 16:53 40.601601 -116.875259 15 4538ft 0kts
08-Jun-16 16:54 40.601601 -116.875259 15 4538ft 0kts
08-Jun-16 16:55 40.601601 -116.875259 15 4538ft 0kts
08-Jun-16 16:56 40.601601 -116.875259 15 4538ft 0kts
08-Jun-16 16:57 40.601601 -116.875259 15 4538ft 0kts
08-Jun-16 16:58 40.601601 -116.875259 15 4538ft 0kts

Navigation Log

Ident Type
Flight plan parsing failed, navigation log unavailable